Time;durP1;ratioP1;P1;durP2;ratioP2;P2;SDS_P1;SDS_P2;PMS_P1;PMS_P2;Temp;Humidity;BMP_temperature;BMP_pressure;BME280_temperature;BME280_humidity;BME280_pressure;Samples;Min_cycle;Max_cycle;Signal;HPM_P1;HPM_P2
2023/02/23 00:02:29;;;;;;;27.40;13.40;;;;;;;11.22;24.51;100667.30;107932;1257;61504;-65
2023/02/23 00:04:57;;;;;;;32.50;13.70;;;;;;;11.30;24.39;100671.98;108026;1257;74486;-65
2023/02/23 00:07:25;;;;;;;33.90;13.60;;;;;;;11.47;24.29;100676.20;107942;1257;71284;-66
2023/02/23 00:09:55;;;;;;;34.10;14.30;;;;;;;11.83;23.90;100672.75;108002;1257;73669;-66
2023/02/23 00:12:25;;;;;;;31.60;13.80;;;;;;;11.99;23.84;100673.45;108038;1256;63296;-66
2023/02/23 00:14:54;;;;;;;29.10;13.60;;;;;;;12.07;23.72;100675.46;108003;1255;59969;-66
2023/02/23 00:17:23;;;;;;;29.60;13.40;;;;;;;11.75;23.97;100676.70;107903;1256;73054;-66
2023/02/23 00:19:51;;;;;;;31.00;13.30;;;;;;;11.86;24.00;100679.83;107986;1257;70616;-65
2023/02/23 00:22:19;;;;;;;33.20;13.60;;;;;;;11.77;23.89;100681.20;107993;1257;73994;-66
2023/02/23 00:24:49;;;;;;;32.70;13.10;;;;;;;11.72;23.93;100682.25;108018;1257;62745;-67
2023/02/23 00:27:19;;;;;;;26.50;11.90;;;;;;;12.05;23.61;100683.64;107894;1257;61555;-66
2023/02/23 00:29:48;;;;;;;33.50;13.90;;;;;;;12.07;23.57;100689.37;107988;1257;73743;-65
2023/02/23 00:32:18;;;;;;;30.70;12.30;;;;;;;12.17;23.44;100686.38;107958;1256;70989;-65
2023/02/23 00:34:50;;;;;;;28.90;13.40;;;;;;;11.87;23.66;100688.26;108223;1253;73232;-66
2023/02/23 00:37:20;;;;;;;25.90;13.10;;;;;;;11.78;23.78;100689.09;108295;1253;63246;-66
2023/02/23 00:39:49;;;;;;;29.90;13.30;;;;;;;11.74;23.72;100690.63;108122;1253;61382;-66
2023/02/23 00:42:17;;;;;;;29.80;14.40;;;;;;;11.65;23.78;100690.92;108385;1253;73259;-67
2023/02/23 00:44:47;;;;;;;33.00;13.40;;;;;;;11.77;23.63;100693.52;108347;1254;69449;-65
2023/02/23 00:47:16;;;;;;;29.80;13.10;;;;;;;11.77;23.62;100697.38;108374;1254;73649;-65
2023/02/23 00:49:44;;;;;;;29.70;13.70;;;;;;;11.94;23.52;100697.38;108267;1252;62986;-65
2023/02/23 00:52:13;;;;;;;29.40;13.80;;;;;;;11.89;23.44;100702.63;108326;1252;61357;-66
2023/02/23 00:54:42;;;;;;;38.40;14.70;;;;;;;11.88;23.47;100710.23;108363;1254;74183;-66
2023/02/23 00:57:10;;;;;;;34.60;14.90;;;;;;;11.79;23.46;100709.64;108268;1254;71415;-65
2023/02/23 00:59:39;;;;;;;34.00;14.60;;;;;;;11.42;23.87;100709.38;108227;1254;72829;-66
2023/02/23 01:02:08;;;;;;;29.80;13.40;;;;;;;11.66;23.64;100711.10;108261;1254;62965;-62
2023/02/23 01:04:36;;;;;;;35.10;13.60;;;;;;;11.52;23.69;100711.02;108333;1254;60851;-66
2023/02/23 01:07:05;;;;;;;33.00;14.30;;;;;;;11.56;23.65;100707.02;108314;1254;72719;-66
2023/02/23 01:09:34;;;;;;;32.80;14.80;;;;;;;11.39;23.83;100705.29;108273;1254;71537;-66
2023/02/23 01:12:06;;;;;;;28.60;12.90;;;;;;;11.37;23.78;100710.09;108284;1254;74938;-65
2023/02/23 01:14:36;;;;;;;29.00;13.60;;;;;;;11.81;23.45;100711.33;108242;1254;61919;-66
2023/02/23 01:17:06;;;;;;;32.20;13.80;;;;;;;11.69;23.46;100713.66;108300;1252;60846;-66
2023/02/23 01:19:37;;;;;;;33.50;13.90;;;;;;;11.54;23.52;100714.99;108189;1254;74385;-65
2023/02/23 01:22:06;;;;;;;35.10;13.20;;;;;;;11.68;23.46;100715.42;108244;1254;70688;-66
2023/02/23 01:24:34;;;;;;;38.80;14.60;;;;;;;11.91;23.47;100719.64;108206;1254;72973;-66
2023/02/23 01:27:05;;;;;;;;;;;;;;;12.11;23.54;100721.45;108297;1254;63073;-67
2023/02/23 01:29:35;;;;;;;29.90;12.70;;;;;;;12.36;23.71;100722.17;108134;1254;60005;-67
2023/02/23 01:32:04;;;;;;;36.50;13.80;;;;;;;11.97;24.37;100730.52;108214;1254;74042;-65
2023/02/23 01:34:37;;;;;;;33.00;14.40;;;;;;;12.14;24.43;100732.25;108149;1254;70988;-64
2023/02/23 01:37:07;;;;;;;34.10;15.10;;;;;;;12.26;24.44;100736.23;108077;1254;73655;-65
2023/02/23 01:39:37;;;;;;;36.00;14.70;;;;;;;12.27;24.52;100736.91;108189;1253;60240;-66
2023/02/23 01:42:25;;;;;;;43.20;14.80;;;;;;;12.34;24.64;100743.35;108155;1253;62563;-66
2023/02/23 01:45:22;;;;;;;33.80;13.40;;;;;;;12.53;24.55;100736.19;108179;1254;72356;-67
2023/02/23 01:47:51;;;;;;;28.30;13.10;;;;;;;12.66;24.31;100739.08;108280;1254;71056;-66
2023/02/23 01:50:24;;;;;;;40.70;14.10;;;;;;;12.63;24.23;100738.62;108232;1254;74021;-66
2023/02/23 01:52:52;;;;;;;30.40;13.30;;;;;;;12.84;23.69;100739.65;108178;1252;62407;-66
2023/02/23 01:55:24;;;;;;;26.20;11.70;;;;;;;12.64;23.84;100742.67;108141;1254;61532;-66
2023/02/23 01:57:55;;;;;;;31.00;14.00;;;;;;;12.46;23.79;100754.39;108178;1253;73183;-66
2023/02/23 02:00:24;;;;;;;;;;;;;;;12.56;23.53;100753.68;108101;1254;71696;-65
2023/02/23 02:02:53;;;;;;;34.30;14.40;;;;;;;12.53;23.41;100758.90;108117;1253;73660;-66
2023/02/23 02:05:21;;;;;;;36.70;15.50;;;;;;;12.22;23.28;100761.71;108268;1252;62917;-65
2023/02/23 02:07:57;;;;;;;36.80;14.70;;;;;;;11.95;23.36;100765.08;108242;1254;61101;-65
2023/02/23 02:10:45;;;;;;;32.30;13.80;;;;;;;11.89;23.27;100770.90;108328;1254;73573;-66
2023/02/23 02:13:17;;;;;;;34.90;15.10;;;;;;;11.52;23.51;100769.77;108214;1254;69665;-66
2023/02/23 02:15:59;;;;;;;39.70;16.00;;;;;;;11.89;23.22;100777.04;108356;1254;73730;-65
2023/02/23 02:19:02;;;;;;;37.70;15.70;;;;;;;11.57;23.33;100781.89;108319;1254;61539;-65
2023/02/23 02:21:30;;;;;;;34.70;15.20;;;;;;;11.45;23.47;100781.23;108351;1254;61002;-66
2023/02/23 02:24:07;;;;;;;31.30;13.10;;;;;;;11.30;23.59;100782.57;108343;1254;72333;-66
2023/02/23 02:27:02;;;;;;;36.10;15.40;;;;;;;11.04;23.93;100783.29;108247;1256;70381;-65
2023/02/23 02:30:12;;;;;;;38.70;14.70;;;;;;;11.23;23.78;100784.51;107932;1252;74009;-65
2023/02/23 02:33:00;;;;;;;43.70;17.00;;;;;;;11.43;23.49;100783.93;108223;1256;63039;-66
2023/02/23 02:35:47;;;;;;;43.60;15.60;;;;;;;10.95;23.89;100789.52;108161;1253;61505;-65
2023/02/23 02:38:26;;;;;;;40.20;15.00;;;;;;;11.16;23.75;100794.20;108265;1253;74025;-65
2023/02/23 02:41:10;;;;;;;39.80;16.30;;;;;;;10.92;23.85;100798.91;108246;1253;71510;-66
2023/02/23 02:43:49;;;;;;;34.40;13.50;;;;;;;10.76;24.08;100800.41;108195;1252;74203;-65
2023/02/23 02:46:26;;;;;;;37.70;16.10;;;;;;;10.79;24.10;100798.06;108239;1253;62895;-65
2023/02/23 02:49:16;;;;;;;41.10;16.90;;;;;;;10.74;24.07;100801.16;108222;1253;59545;-65
2023/02/23 02:51:48;;;;;;;37.30;15.10;;;;;;;10.37;24.43;100803.17;108293;1254;72514;-67
2023/02/23 02:54:25;;;;;;;38.90;15.70;;;;;;;10.25;24.72;100804.70;108271;1252;70490;-65
2023/02/23 02:56:56;;;;;;;38.60;15.30;;;;;;;10.62;24.27;100803.77;108258;1253;72658;-66
2023/02/23 04:18:07;;;;;;;32.00;13.90;;;;;;;10.78;23.99;100862.18;108264;1252;75116;-64
2023/02/23 04:20:35;;;;;;;34.20;15.20;;;;;;;10.65;24.25;100862.87;108210;1252;70077;-66
2023/02/23 04:23:03;;;;;;;40.00;15.30;;;;;;;10.66;24.63;100863.20;108219;1254;72374;-65
2023/02/23 04:25:31;;;;;;;40.10;15.50;;;;;;;10.91;24.66;100863.95;108194;1254;63160;-67
2023/02/23 04:28:00;;;;;;;35.80;14.50;;;;;;;10.89;24.88;100864.19;108199;1253;61411;-65
2023/02/23 04:30:29;;;;;;;33.40;14.20;;;;;;;11.17;24.67;100857.81;108322;1252;72813;-66
2023/02/23 04:32:58;;;;;;;40.30;15.70;;;;;;;11.52;24.60;100863.14;108341;1253;71206;-66
2023/02/23 04:35:28;;;;;;;34.60;13.60;;;;;;;11.53;24.46;100862.58;108331;1253;73628;-66
2023/02/23 04:38:00;;;;;;;38.50;14.60;;;;;;;11.29;24.61;100871.52;108334;1253;63149;-65
2023/02/23 04:40:29;;;;;;;34.40;13.80;;;;;;;11.02;24.96;100872.78;108294;1254;60520;-65
2023/02/23 04:42:57;;;;;;;33.00;13.50;;;;;;;11.42;24.46;100875.91;108259;1256;74792;-65
2023/02/23 04:45:26;;;;;;;34.80;14.30;;;;;;;11.40;23.92;100879.14;108292;1256;70285;-66
2023/02/23 04:47:55;;;;;;;38.60;15.10;;;;;;;11.46;23.48;100880.70;108164;1253;72996;-65
2023/02/23 04:50:24;;;;;;;38.20;16.00;;;;;;;11.20;23.51;100885.30;108258;1253;61705;-65
2023/02/23 04:52:52;;;;;;;36.00;14.10;;;;;;;10.89;23.44;100883.69;108246;1253;61273;-65
2023/02/23 04:55:22;;;;;;;33.50;15.10;;;;;;;10.83;23.58;100892.62;108328;1253;75082;-65
2023/02/23 04:57:55;;;;;;;34.50;15.20;;;;;;;10.95;23.32;100891.62;108296;1254;71056;-66
2023/02/23 05:00:23;;;;;;;37.30;15.60;;;;;;;10.50;23.56;100896.44;108195;1253;74003;-66
2023/02/23 05:02:51;;;;;;;34.80;15.40;;;;;;;10.30;23.76;100895.67;108354;1253;61685;-66
2023/02/23 05:05:20;;;;;;;36.20;14.60;;;;;;;10.29;23.80;100900.61;108333;1252;61544;-66
2023/02/23 05:07:49;;;;;;;38.30;16.70;;;;;;;10.39;23.68;100900.38;108188;1253;74553;-66
2023/02/23 05:10:18;;;;;;;36.30;14.20;;;;;;;10.68;23.66;100899.68;108350;1253;70370;-65
2023/02/23 05:12:46;;;;;;;40.20;15.20;;;;;;;11.09;23.63;100901.42;108197;1256;73657;-67
2023/02/23 05:15:14;;;;;;;35.70;14.80;;;;;;;10.70;24.14;100904.88;108300;1253;62485;-64
2023/02/23 05:17:43;;;;;;;41.10;15.80;;;;;;;10.62;24.51;100910.70;108295;1254;60063;-66
2023/02/23 05:20:17;;;;;;;45.50;19.00;;;;;;;11.00;24.20;100915.73;108338;1252;74217;-67
2023/02/23 05:22:45;;;;;;;46.80;20.50;;;;;;;10.95;24.46;100919.88;108205;1253;71361;-65
2023/02/23 05:25:13;;;;;;;43.10;17.60;;;;;;;10.91;24.52;100920.86;108363;1256;72426;-65
2023/02/23 05:27:41;;;;;;;43.90;18.50;;;;;;;10.92;24.69;100925.94;108294;1252;62855;-65
2023/02/23 05:30:10;;;;;;;38.70;16.10;;;;;;;11.05;24.46;100924.20;108199;1253;61562;-67
2023/02/23 05:32:42;;;;;;;38.90;16.70;;;;;;;11.43;24.13;100926.52;108331;1252;73483;-65
2023/02/23 05:35:11;;;;;;;45.70;18.40;;;;;;;11.00;24.20;100940.66;108305;1254;70425;-66
2023/02/23 05:37:40;;;;;;;42.00;18.60;;;;;;;11.12;23.87;100941.94;108364;1253;73452;-67
2023/02/23 05:40:09;;;;;;;48.40;20.00;;;;;;;11.14;23.76;100949.98;108324;1253;63180;-66
2023/02/23 05:42:40;;;;;;;42.90;18.50;;;;;;;11.05;23.79;100949.50;108351;1253;60360;-66
2023/02/23 05:45:08;;;;;;;46.90;21.00;;;;;;;11.26;23.49;100951.77;108376;1253;73832;-66
2023/02/23 05:47:37;;;;;;;40.70;18.60;;;;;;;11.28;23.46;100958.55;108321;1254;71356;-66
2023/02/23 05:50:11;;;;;;;43.00;19.10;;;;;;;11.21;23.57;100959.81;108210;1254;73605;-66
2023/02/23 05:52:40;;;;;;;35.60;16.50;;;;;;;10.81;23.76;100968.72;108300;1253;61868;-66
2023/02/23 05:55:10;;;;;;;40.10;19.00;;;;;;;10.80;24.04;100968.41;108215;1253;61051;-65
2023/02/23 05:57:39;;;;;;;46.30;20.00;;;;;;;11.57;24.38;100971.84;108298;1254;74999;-66
2023/02/23 06:00:09;;;;;;;36.00;17.70;;;;;;;12.28;24.56;100972.10;108338;1253;70830;-66
2023/02/23 06:02:38;;;;;;;36.10;16.80;;;;;;;13.32;24.17;100971.52;108323;1252;73919;-67
2023/02/23 06:05:08;;;;;;;32.40;16.00;;;;;;;14.68;23.44;100968.02;108270;1253;61978;-67
2023/02/23 06:07:36;;;;;;;30.20;14.90;;;;;;;15.16;23.26;100970.82;108261;1254;61548;-67
2023/02/23 06:10:06;;;;;;;36.30;15.10;;;;;;;15.63;22.48;100973.55;108293;1254;75254;-66
2023/02/23 06:12:35;;;;;;;29.70;14.70;;;;;;;16.31;21.48;100974.70;108210;1254;71677;-69
2023/02/23 06:15:03;;;;;;;32.90;14.30;;;;;;;16.78;20.60;100978.64;108233;1254;72633;-67
2023/02/23 06:17:34;;;;;;;27.20;14.60;;;;;;;17.23;20.22;100985.64;108251;1252;62202;-67
2023/02/23 06:20:04;;;;;;;27.60;13.20;;;;;;;17.46;19.92;100984.99;108232;1252;60972;-67
2023/02/23 06:22:35;;;;;;;46.90;17.60;;;;;;;17.44;19.70;100990.41;108297;1253;74803;-65
2023/02/23 06:25:07;;;;;;;27.60;13.50;;;;;;;18.27;19.06;100987.44;108235;1253;70071;-70
2023/02/23 06:27:35;;;;;;;30.50;13.20;;;;;;;18.89;18.04;100988.91;108332;1254;73788;-67
2023/02/23 06:30:04;;;;;;;22.90;12.30;;;;;;;19.18;17.83;100988.51;108280;1252;61429;-67
2023/02/23 06:32:33;;;;;;;26.60;13.90;;;;;;;19.45;17.71;100991.80;108199;1256;60458;-69
2023/02/23 06:35:04;;;;;;;24.70;12.40;;;;;;;19.95;17.50;100996.98;108318;1253;74789;-68
2023/02/23 06:37:33;;;;;;;26.90;12.60;;;;;;;20.38;17.26;100995.00;108249;1256;70313;-67
2023/02/23 06:40:04;;;;;;;23.00;12.20;;;;;;;21.08;16.55;100998.98;108376;1252;72618;-67
2023/02/23 06:42:34;;;;;;;19.60;12.00;;;;;;;21.45;16.34;100996.85;108313;1254;60291;-67
2023/02/23 06:45:03;;;;;;;23.90;11.20;;;;;;;21.96;15.59;100992.79;108359;1252;61005;-66
2023/02/23 06:47:33;;;;;;;38.70;17.30;;;;;;;21.95;15.33;100995.66;108283;1254;73890;-66
2023/02/23 06:50:07;;;;;;;24.70;13.20;;;;;;;22.18;14.90;100991.60;108316;1253;71515;-66
2023/02/23 06:52:35;;;;;;;24.70;13.70;;;;;;;22.52;15.08;100994.10;108250;1253;73536;-66
2023/02/23 06:55:04;;;;;;;22.70;12.10;;;;;;;22.93;14.72;100990.88;108280;1253;60453;-68
2023/02/23 06:57:33;;;;;;;20.00;11.40;;;;;;;22.70;14.12;100990.10;108336;1253;60283;-67
2023/02/23 07:00:02;;;;;;;21.70;11.50;;;;;;;22.19;13.76;100993.30;108324;1252;73680;-66
2023/02/23 07:02:30;;;;;;;20.60;11.00;;;;;;;22.32;14.01;100997.55;108361;1253;71305;-67
2023/02/23 07:04:59;;;;;;;16.60;10.20;;;;;;;22.42;14.37;100993.47;108182;1253;73907;-67
2023/02/23 07:07:27;;;;;;;21.00;11.00;;;;;;;22.86;13.82;100993.96;108244;1254;60451;-66
2023/02/23 07:09:55;;;;;;;17.90;10.20;;;;;;;23.15;13.66;100996.95;108356;1253;60428;-66
2023/02/23 07:12:24;;;;;;;19.60;11.20;;;;;;;23.60;13.45;100995.66;108262;1253;74595;-66
2023/02/23 07:14:53;;;;;;;17.70;10.70;;;;;;;24.37;12.69;100992.95;108301;1253;71650;-65
2023/02/23 07:17:21;;;;;;;20.30;9.80;;;;;;;24.06;12.88;100994.75;108336;1252;73635;-65
2023/02/23 07:19:51;;;;;;;17.10;9.40;;;;;;;23.88;12.36;101000.14;108283;1254;61034;-65
2023/02/23 07:22:21;;;;;;;16.80;9.80;;;;;;;23.96;12.54;100995.91;108287;1253;61246;-68
2023/02/23 07:24:49;;;;;;;15.80;9.90;;;;;;;24.40;12.68;100996.48;108290;1252;72629;-67
2023/02/23 07:27:17;;;;;;;15.20;9.70;;;;;;;24.57;12.18;100999.21;108282;1254;68436;-66
2023/02/23 07:29:45;;;;;;;16.00;9.00;;;;;;;24.38;11.99;100995.91;108172;1253;73082;-65
2023/02/23 07:32:13;;;;;;;16.20;9.90;;;;;;;24.19;12.05;100998.02;108182;1253;61349;-65
2023/02/23 07:34:41;;;;;;;19.10;10.50;;;;;;;24.09;11.81;101000.02;108131;1253;61392;-66
2023/02/23 07:37:09;;;;;;;15.00;8.80;;;;;;;24.57;11.83;100998.52;108181;1253;74987;-65
2023/02/23 07:39:38;;;;;;;21.30;8.80;;;;;;;24.54;11.50;101001.65;108254;1253;71036;-66
2023/02/23 07:42:06;;;;;;;20.90;9.40;;;;;;;23.92;11.60;101003.05;108177;1254;73758;-66
2023/02/23 07:44:37;;;;;;;61.60;10.60;;;;;;;24.30;11.71;101003.77;108095;1254;60421;-67
2023/02/23 07:47:05;;;;;;;14.60;9.00;;;;;;;25.17;11.15;101006.48;108163;1253;60667;-67
2023/02/23 07:49:34;;;;;;;15.70;9.50;;;;;;;25.37;11.28;101004.61;108202;1253;74947;-66
2023/02/23 07:52:02;;;;;;;16.70;8.50;;;;;;;25.33;11.04;101004.48;108220;1252;71375;-66
2023/02/23 07:54:30;;;;;;;18.90;10.20;;;;;;;24.97;10.84;101001.70;108139;1253;71410;-64
2023/02/23 07:56:59;;;;;;;16.30;9.00;;;;;;;23.89;10.84;101004.88;108179;1253;60187;-65
2023/02/23 07:59:27;;;;;;;16.10;9.20;;;;;;;23.77;11.22;101009.06;108179;1252;61133;-69
2023/02/23 08:01:55;;;;;;;20.20;8.10;;;;;;;23.99;11.27;101008.17;108196;1254;74477;-68
2023/02/23 08:04:24;;;;;;;14.30;7.90;;;;;;;24.01;11.64;101010.61;108159;1252;71858;-71
2023/02/23 08:06:53;;;;;;;17.20;8.00;;;;;;;24.90;11.22;101007.69;108181;1254;71831;-67
2023/02/23 08:09:22;;;;;;;13.50;8.60;;;;;;;25.71;11.13;101009.48;108215;1253;61735;-68
2023/02/23 08:11:51;;;;;;;16.40;8.90;;;;;;;26.34;10.32;101010.77;108221;1253;61505;-68
2023/02/23 08:14:22;;;;;;;15.00;8.80;;;;;;;26.12;10.07;101005.55;108153;1253;75000;-67
2023/02/23 08:16:50;;;;;;;14.30;8.80;;;;;;;26.10;10.64;101005.67;108167;1252;70072;-68
2023/02/23 08:19:23;;;;;;;16.00;9.40;;;;;;;26.72;10.48;101004.95;108177;1253;74302;-67
2023/02/23 08:21:51;;;;;;;17.20;9.70;;;;;;;26.64;10.18;101003.20;108248;1252;60437;-68
2023/02/23 08:24:24;;;;;;;16.70;9.00;;;;;;;26.89;10.38;100998.72;108272;1253;60987;-66
2023/02/23 08:26:52;;;;;;;16.90;9.50;;;;;;;27.27;9.83;101003.73;108284;1253;74881;-68
2023/02/23 08:29:21;;;;;;;13.70;9.00;;;;;;;27.66;9.89;101001.46;108178;1253;69663;-67
2023/02/23 08:31:50;;;;;;;14.00;8.80;;;;;;;27.21;9.92;100998.46;108368;1254;73066;-66
2023/02/23 08:34:21;;;;;;;16.40;9.80;;;;;;;27.21;9.96;100999.57;108388;1252;60380;-67
2023/02/23 08:36:49;;;;;;;16.00;9.60;;;;;;;27.31;10.13;100999.38;108163;1254;59627;-67
2023/02/23 08:39:18;;;;;;;19.90;9.70;;;;;;;27.52;9.75;101004.80;108125;1253;74971;-66
2023/02/23 08:41:46;;;;;;;23.20;9.60;;;;;;;27.65;9.79;101005.51;108158;1253;71257;-66
2023/02/23 08:44:15;;;;;;;16.90;8.70;;;;;;;27.66;9.50;101007.07;108159;1252;74035;-67
2023/02/23 08:46:44;;;;;;;22.20;10.40;;;;;;;27.65;9.45;101003.77;108079;1254;61273;-66
2023/02/23 08:49:12;;;;;;;16.70;9.60;;;;;;;27.91;9.60;101007.08;108174;1252;60156;-68
2023/02/23 08:51:42;;;;;;;15.40;9.00;;;;;;;27.79;9.52;101007.79;108163;1254;72413;-66
2023/02/23 08:54:13;;;;;;;14.90;9.50;;;;;;;28.37;9.39;101008.89;108191;1256;69630;-66
2023/02/23 08:56:41;;;;;;;13.90;8.80;;;;;;;28.33;9.48;101010.05;108113;1253;72384;-68
2023/02/23 08:59:10;;;;;;;15.10;9.40;;;;;;;27.81;9.47;101012.84;108180;1253;61603;-68
2023/02/23 09:01:41;;;;;;;16.50;9.60;;;;;;;27.56;9.50;101013.62;108093;1254;61401;-68
2023/02/23 09:04:10;;;;;;;17.90;9.30;;;;;;;27.85;9.62;101010.48;108065;1257;73119;-67
2023/02/23 09:06:40;;;;;;;13.30;7.30;;;;;;;28.42;9.02;101007.66;108150;1254;71290;-67
2023/02/23 09:09:09;;;;;;;18.40;10.10;;;;;;;27.91;9.17;101005.42;108110;1252;73790;-67
2023/02/23 09:11:37;;;;;;;13.30;8.90;;;;;;;27.55;9.55;101012.81;108093;1253;60815;-66
2023/02/23 09:14:05;;;;;;;11.40;7.50;;;;;;;28.19;9.68;101011.71;108185;1254;61534;-66
2023/02/23 09:16:34;;;;;;;11.50;7.20;;;;;;;28.57;9.19;101011.48;108190;1253;75393;-66
2023/02/23 09:19:04;;;;;;;12.00;7.80;;;;;;;28.62;8.40;101015.11;108283;1253;71374;-66
2023/02/23 09:21:33;;;;;;;13.30;8.10;;;;;;;28.86;8.59;101017.05;108076;1253;72796;-66
2023/02/23 09:24:01;;;;;;;12.90;7.60;;;;;;;28.87;8.40;101013.48;108197;1254;60429;-68
2023/02/23 09:26:32;;;;;;;13.20;8.30;;;;;;;28.57;8.25;101013.20;108172;1253;60951;-69
2023/02/23 09:29:00;;;;;;;14.40;8.50;;;;;;;28.09;9.09;101015.42;108164;1254;73238;-68
2023/02/23 09:31:29;;;;;;;16.60;7.70;;;;;;;28.31;9.09;101014.55;108187;1254;71531;-67
2023/02/23 09:33:59;;;;;;;12.60;7.20;;;;;;;28.85;9.15;101020.81;108112;1254;73647;-66
2023/02/23 09:36:28;;;;;;;12.50;7.40;;;;;;;29.26;8.78;101017.16;108127;1252;60345;-67
2023/02/23 09:38:56;;;;;;;12.80;7.30;;;;;;;29.70;8.46;101013.90;108177;1253;61064;-68
2023/02/23 09:41:24;;;;;;;12.80;7.10;;;;;;;29.81;8.20;101012.58;108183;1253;74836;-68
2023/02/23 09:44:32;;;;;;;11.00;6.60;;;;;;;29.86;8.13;101012.27;108180;1253;70980;-68
2023/02/23 09:47:10;;;;;;;10.70;6.00;;;;;;;29.34;7.80;101015.25;107699;1254;72569;-68
2023/02/23 09:49:40;;;;;;;9.80;6.50;;;;;;;29.32;8.26;101016.52;108072;1254;61571;-70
2023/02/23 09:52:32;;;;;;;15.30;7.50;;;;;;;28.75;7.98;101020.71;108050;1254;61396;-69
2023/02/23 09:55:01;;;;;;;12.40;7.00;;;;;;;28.98;8.15;101019.97;108105;1254;74645;-67
2023/02/23 09:57:40;;;;;;;12.40;7.90;;;;;;;28.57;8.74;101021.60;108033;1258;71030;-67
2023/02/23 10:00:26;;;;;;;12.20;7.80;;;;;;;27.79;8.70;101023.34;108199;1253;70583;-68
2023/02/23 10:03:01;;;;;;;17.10;8.20;;;;;;;27.79;8.94;101021.20;108120;1253;60402;-67
2023/02/23 10:05:30;;;;;;;11.80;7.80;;;;;;;28.14;8.73;101014.21;108159;1254;60581;-66
2023/02/23 10:08:06;;;;;;;12.50;7.30;;;;;;;27.62;8.74;101018.61;108075;1253;73710;-67
2023/02/23 10:10:44;;;;;;;12.70;7.20;;;;;;;27.28;9.11;101016.18;108171;1254;71290;-66
2023/02/23 10:13:28;;;;;;;12.90;7.50;;;;;;;26.93;9.41;101017.33;108131;1253;73886;-67
2023/02/23 10:16:02;;;;;;;12.50;7.50;;;;;;;27.08;9.09;101010.86;108145;1254;60901;-67
2023/02/23 10:18:53;;;;;;;16.30;7.70;;;;;;;27.03;8.88;101010.77;108034;1253;60447;-68
2023/02/23 10:21:35;;;;;;;16.90;8.50;;;;;;;26.54;9.45;101012.39;108156;1254;73317;-68
2023/02/23 10:24:13;;;;;;;16.00;8.00;;;;;;;27.20;9.33;101006.88;108192;1256;69629;-67
2023/02/23 10:26:46;;;;;;;13.10;7.30;;;;;;;27.63;9.11;101007.73;108087;1253;73957;-67
2023/02/23 10:29:28;;;;;;;13.30;7.50;;;;;;;28.05;8.66;101006.54;108182;1254;61638;-68
2023/02/23 10:32:01;;;;;;;13.40;7.90;;;;;;;27.66;8.32;101004.94;108128;1256;60609;-68
2023/02/23 10:34:30;;;;;;;15.60;6.80;;;;;;;27.59;8.78;101004.86;108070;1254;74487;-68
2023/02/23 10:37:03;;;;;;;15.60;7.10;;;;;;;28.30;8.71;101001.09;108156;1254;70682;-68
2023/02/23 10:39:33;;;;;;;11.00;6.20;;;;;;;28.24;8.39;101002.88;108170;1254;72546;-67
2023/02/23 10:42:04;;;;;;;12.50;7.40;;;;;;;28.46;8.55;101001.85;108164;1253;60322;-67
2023/02/23 10:44:32;;;;;;;11.60;7.00;;;;;;;28.96;8.00;101001.20;108193;1254;60769;-67
2023/02/23 10:47:12;;;;;;;14.00;7.70;;;;;;;28.48;8.23;100996.13;108178;1254;75237;-68
2023/02/23 10:49:51;;;;;;;13.20;7.80;;;;;;;28.71;7.83;100997.24;108138;1254;71492;-69
2023/02/23 10:52:38;;;;;;;11.30;7.20;;;;;;;28.21;8.15;100999.77;108174;1254;73665;-67
2023/02/23 10:55:38;;;;;;;12.90;7.10;;;;;;;27.47;8.04;100995.34;108188;1254;61281;-67
2023/02/23 10:58:17;;;;;;;13.50;7.70;;;;;;;26.89;8.47;100992.59;108134;1254;60290;-68
2023/02/23 11:00:51;;;;;;;13.20;7.20;;;;;;;27.30;8.83;100993.31;108177;1254;74422;-67
2023/02/23 11:03:29;;;;;;;10.00;6.30;;;;;;;27.93;8.85;100988.95;108221;1254;70228;-68
2023/02/23 11:06:01;;;;;;;11.50;6.40;;;;;;;27.93;8.53;100989.36;108149;1254;72228;-68
2023/02/23 11:08:34;;;;;;;10.70;6.40;;;;;;;28.09;8.62;100991.98;108071;1253;62122;-67
2023/02/23 11:11:14;;;;;;;11.80;6.50;;;;;;;28.36;8.33;100990.19;108222;1254;61544;-66
2023/02/23 11:13:45;;;;;;;11.50;6.50;;;;;;;28.46;8.10;100983.46;108048;1254;74208;-68
2023/02/23 11:16:24;;;;;;;10.70;6.30;;;;;;;28.75;7.74;100982.86;108210;1253;68104;-67
2023/02/23 11:19:03;;;;;;;11.70;6.20;;;;;;;28.09;7.92;100980.38;108295;1256;73879;-68
2023/02/23 11:21:37;;;;;;;11.70;5.90;;;;;;;27.55;8.48;100982.48;108218;1254;60616;-68
2023/02/23 11:24:20;;;;;;;11.70;6.30;;;;;;;27.50;8.31;100981.38;108157;1254;61176;-66
2023/02/23 11:26:50;;;;;;;10.50;6.30;;;;;;;27.55;8.20;100990.05;108160;1252;73582;-67
2023/02/23 11:29:36;;;;;;;15.80;6.40;;;;;;;27.39;8.54;100989.09;108260;1253;71377;-67
2023/02/23 11:32:12;;;;;;;12.00;6.50;;;;;;;26.80;8.75;100986.20;108288;1254;72670;-68
2023/02/23 11:34:42;;;;;;;12.70;6.10;;;;;;;25.49;8.91;100988.63;108262;1253;61648;-67
2023/02/23 11:37:13;;;;;;;15.00;7.00;;;;;;;25.24;9.25;100984.89;108155;1253;61286;-67
2023/02/23 11:39:56;;;;;;;14.70;6.40;;;;;;;25.14;8.93;100986.02;108262;1254;74735;-67
2023/02/23 11:42:26;;;;;;;14.40;6.90;;;;;;;25.46;9.16;100985.14;108245;1256;71165;-67
2023/02/23 11:45:06;;;;;;;10.80;6.60;;;;;;;25.98;9.23;100986.25;108054;1253;72736;-67
2023/02/23 11:50:06;;;;;;;14.80;7.30;;;;;;;23.72;9.96;100989.65;104710;1292;600753;-66
2023/02/23 11:52:35;;;;;;;12.90;7.00;;;;;;;25.67;8.89;100991.56;107228;1267;60381;-68
2023/02/23 11:55:05;;;;;;;16.90;7.80;;;;;;;25.62;8.81;100991.52;107173;1267;61014;-68
2023/02/23 11:57:33;;;;;;;12.70;7.40;;;;;;;25.49;9.35;100991.48;107319;1264;71171;-68
2023/02/23 12:00:07;;;;;;;15.70;7.80;;;;;;;26.07;9.17;100990.30;107317;1264;71724;-67
2023/02/23 12:02:50;;;;;;;17.00;8.40;;;;;;;26.63;9.42;100988.00;107217;1262;173404;-67
2023/02/23 12:05:20;;;;;;;16.60;8.10;;;;;;;27.10;9.73;100988.17;108137;1253;61537;-68
2023/02/23 12:08:04;;;;;;;14.20;7.60;;;;;;;27.27;9.17;100986.20;108124;1254;60034;-66
2023/02/23 12:10:50;;;;;;;14.20;7.90;;;;;;;26.26;9.19;100987.68;108305;1251;71664;-67
2023/02/23 12:13:40;;;;;;;14.60;8.40;;;;;;;25.84;9.63;100984.90;108281;1251;69001;-67
2023/02/23 12:16:21;;;;;;;13.70;7.70;;;;;;;25.65;9.82;100986.59;108273;1251;73856;-67
2023/02/23 12:18:51;;;;;;;19.00;8.80;;;;;;;24.97;9.91;100980.31;108310;1254;61141;-67
2023/02/23 12:21:22;;;;;;;14.60;8.00;;;;;;;24.28;10.56;100983.40;108304;1251;60112;-67
2023/02/23 12:23:49;;;;;;;15.10;8.80;;;;;;;24.27;10.66;100972.44;108330;1251;74318;-68
2023/02/23 12:26:21;;;;;;;14.50;8.20;;;;;;;24.03;10.93;100973.83;108128;1258;71515;-65
2023/02/23 12:28:58;;;;;;;17.80;9.30;;;;;;;23.17;11.44;100973.91;108302;1251;72397;-66
2023/02/23 12:31:53;;;;;;;16.20;8.90;;;;;;;22.03;11.66;100973.83;108337;1255;60630;-67
2023/02/23 12:34:40;;;;;;;16.30;9.40;;;;;;;21.73;12.03;100971.02;108299;1251;61415;-68
2023/02/23 12:37:27;;;;;;;19.80;10.10;;;;;;;21.97;12.14;100966.56;108213;1253;74097;-68
2023/02/23 12:40:22;;;;;;;17.10;8.70;;;;;;;21.95;12.15;100965.48;108212;1252;71159;-67
2023/02/23 12:43:00;;;;;;;26.80;10.40;;;;;;;21.65;12.09;100968.98;108078;1254;72501;-67
2023/02/23 12:45:36;;;;;;;18.90;9.20;;;;;;;21.61;12.58;100965.74;108211;1254;59767;-68
2023/02/23 12:48:06;;;;;;;19.00;8.70;;;;;;;21.25;12.63;100966.76;108183;1253;61158;-65
2023/02/23 12:50:42;;;;;;;17.00;9.00;;;;;;;21.59;12.45;100964.09;108227;1253;73207;-65
2023/02/23 12:53:41;;;;;;;20.50;10.20;;;;;;;21.70;12.75;100961.73;108215;1253;69469;-66